createdAt,value
2022-09-30T00:01:11.565Z,8.82
2022-09-30T00:04:00.227Z,8.72
2022-09-30T00:06:49.237Z,8.74
2022-09-30T00:09:38.522Z,8.75
2022-09-30T00:12:27.285Z,8.82
2022-09-30T00:15:15.506Z,8.88
2022-09-30T00:18:03.406Z,8.85
2022-09-30T00:20:53.090Z,8.79
2022-09-30T00:23:41.686Z,8.79
2022-09-30T00:26:31.422Z,8.56
2022-09-30T00:29:19.428Z,8.77
2022-09-30T00:32:07.380Z,8.79
2022-09-30T00:34:55.285Z,8.82
2022-09-30T00:37:43.504Z,8.90
2022-09-30T00:40:31.444Z,8.94
2022-09-30T00:43:40.563Z,8.94
2022-09-30T00:46:34.122Z,8.88
2022-09-30T00:49:25.652Z,8.96
2022-09-30T00:52:14.130Z,8.94
2022-09-30T00:55:05.618Z,8.97
2022-09-30T00:57:53.981Z,8.93
2022-09-30T01:00:43.368Z,8.90
2022-09-30T01:03:32.851Z,8.82
2022-09-30T01:06:23.410Z,8.82
2022-09-30T01:09:12.400Z,8.34
2022-09-30T01:12:00.795Z,8.68
2022-09-30T01:14:53.064Z,8.60
2022-09-30T01:17:52.369Z,8.63
2022-09-30T01:20:57.172Z,8.66
2022-09-30T01:24:09.884Z,8.72
2022-09-30T01:27:33.159Z,8.82
2022-09-30T01:30:22.831Z,8.84
2022-09-30T01:33:26.849Z,8.79
2022-09-30T01:36:29.448Z,8.72
2022-09-30T01:39:28.299Z,8.70
2022-09-30T01:42:24.432Z,8.55
2022-09-30T01:45:17.631Z,8.66
2022-09-30T01:48:14.860Z,8.68
2022-09-30T01:51:08.435Z,8.76
2022-09-30T01:54:00.418Z,8.77
2022-09-30T01:56:52.618Z,8.73
2022-09-30T01:59:47.457Z,8.64
2022-09-30T02:02:41.825Z,8.75
2022-09-30T02:05:37.731Z,8.78
2022-09-30T02:08:32.491Z,8.80
2022-09-30T02:11:26.061Z,8.79
2022-09-30T02:14:20.320Z,8.73
2022-09-30T02:17:16.054Z,8.62
2022-09-30T02:20:07.180Z,8.74
2022-09-30T02:23:05.085Z,8.83
2022-09-30T02:26:05.912Z,8.78
2022-09-30T02:29:03.886Z,8.82
2022-09-30T02:31:56.759Z,8.83
2022-09-30T02:34:50.251Z,8.86
2022-09-30T02:37:43.527Z,8.84
2022-09-30T02:40:36.873Z,8.89
2022-09-30T02:43:27.337Z,8.91
2022-09-30T02:46:26.350Z,8.88
2022-09-30T02:49:22.480Z,8.85
2022-09-30T02:52:20.149Z,8.93
2022-09-30T02:55:18.574Z,9.04
2022-09-30T02:58:13.925Z,9.06
2022-09-30T03:01:04.118Z,9.06
2022-09-30T03:03:56.209Z,9.08
2022-09-30T03:06:44.526Z,9.10
2022-09-30T03:09:32.407Z,9.10
2022-09-30T03:12:35.874Z,9.15
2022-09-30T03:15:39.629Z,9.11
2022-09-30T03:18:52.382Z,9.04
2022-09-30T03:21:54.210Z,9.03
2022-09-30T03:24:56.039Z,8.98
2022-09-30T03:27:53.433Z,8.97
2022-09-30T03:30:51.977Z,8.96
2022-09-30T03:33:47.554Z,8.96
2022-09-30T03:36:42.273Z,8.99
2022-09-30T03:39:43.937Z,9.00
2022-09-30T03:42:38.885Z,9.05
2022-09-30T03:45:32.570Z,9.03
2022-09-30T03:48:22.544Z,9.04
2022-09-30T03:51:10.960Z,8.98
2022-09-30T03:54:00.643Z,8.99
2022-09-30T03:56:48.762Z,8.97
2022-09-30T03:59:36.642Z,8.90
2022-09-30T04:02:25.008Z,8.42
2022-09-30T04:05:13.362Z,8.89
2022-09-30T04:08:01.514Z,8.83
2022-09-30T04:10:50.710Z,8.92
2022-09-30T04:13:39.053Z,8.90
2022-09-30T04:16:26.944Z,8.83
2022-09-30T04:19:14.876Z,8.54
2022-09-30T04:22:02.816Z,8.45
2022-09-30T04:24:50.813Z,8.26
2022-09-30T04:27:40.061Z,8.03
2022-09-30T04:30:32.678Z,7.94
2022-09-30T04:33:21.422Z,7.79
2022-09-30T04:36:09.546Z,7.50
2022-09-30T04:38:57.909Z,7.48
2022-09-30T04:41:46.257Z,7.34
2022-09-30T04:44:35.663Z,7.30
2022-09-30T04:47:25.176Z,7.23
2022-09-30T04:50:14.039Z,7.21
2022-09-30T04:53:03.714Z,7.17
2022-09-30T04:55:51.567Z,7.18
2022-09-30T04:58:39.528Z,7.12
2022-09-30T05:01:28.848Z,7.06
2022-09-30T05:04:16.756Z,7.01
2022-09-30T05:07:08.688Z,6.90
2022-09-30T05:09:56.632Z,6.81
2022-09-30T05:12:44.802Z,6.75
2022-09-30T05:15:35.462Z,6.74
2022-09-30T05:18:25.925Z,6.72
2022-09-30T05:21:14.944Z,6.70
2022-09-30T05:24:03.016Z,6.65
2022-09-30T05:26:51.211Z,6.60
2022-09-30T05:29:39.088Z,6.53
2022-09-30T05:32:27.185Z,6.48
2022-09-30T05:35:16.775Z,6.50
2022-09-30T05:38:04.808Z,6.42
2022-09-30T05:40:52.832Z,6.21
2022-09-30T05:43:42.407Z,6.18
2022-09-30T05:46:30.436Z,6.09
2022-09-30T05:49:18.568Z,6.06
2022-09-30T05:52:08.006Z,6.19
2022-09-30T05:54:57.582Z,6.21
2022-09-30T05:57:49.269Z,6.20
2022-09-30T06:00:39.908Z,6.17
2022-09-30T06:03:27.872Z,6.22
2022-09-30T06:05:57.454Z,6.56
2022-09-30T06:08:27.145Z,6.76
2022-09-30T06:10:54.951Z,7.19
2022-09-30T06:13:22.841Z,7.30
2022-09-30T06:15:56.919Z,7.42
2022-09-30T06:18:25.483Z,7.43
2022-09-30T06:20:54.526Z,7.57
2022-09-30T06:23:22.321Z,7.69
2022-09-30T06:25:53.105Z,7.74
2022-09-30T06:28:21.715Z,7.82
2022-09-30T06:30:49.592Z,7.82
2022-09-30T06:33:17.783Z,7.85
2022-09-30T06:35:47.347Z,7.90
2022-09-30T06:38:16.591Z,7.93
2022-09-30T06:40:44.584Z,8.23
2022-09-30T06:43:14.222Z,8.43
2022-09-30T06:45:41.878Z,8.69
2022-09-30T06:48:10.755Z,8.95
2022-09-30T06:50:39.004Z,8.98
2022-09-30T06:53:08.648Z,9.05
2022-09-30T06:55:39.090Z,9.04
2022-09-30T06:58:07.849Z,9.01
2022-09-30T07:00:37.509Z,9.06
2022-09-30T07:03:09.845Z,9.14
2022-09-30T07:05:37.527Z,9.04
2022-09-30T07:08:05.824Z,9.14
2022-09-30T07:10:33.449Z,9.15
2022-09-30T07:13:02.417Z,9.33
2022-09-30T07:15:30.127Z,9.43
2022-09-30T07:17:59.043Z,9.49
2022-09-30T07:20:26.895Z,9.65
2022-09-30T07:22:54.549Z,9.81
2022-09-30T07:25:22.162Z,9.88
2022-09-30T07:27:50.307Z,10.12
2022-09-30T07:30:25.766Z,10.29
2022-09-30T07:32:54.535Z,10.30
2022-09-30T07:35:23.476Z,10.32
2022-09-30T07:37:51.118Z,10.24
2022-09-30T07:40:18.764Z,10.15
2022-09-30T07:42:46.367Z,9.75
2022-09-30T07:45:15.852Z,9.70
2022-09-30T07:47:43.477Z,9.41
2022-09-30T07:50:13.273Z,9.53
2022-09-30T07:52:42.212Z,9.45
2022-09-30T07:55:09.890Z,9.33
2022-09-30T07:57:37.530Z,9.36
2022-09-30T08:00:23.409Z,9.27
2022-09-30T08:02:54.873Z,9.29
2022-09-30T08:05:22.493Z,9.31
2022-09-30T08:07:51.508Z,9.45
2022-09-30T08:12:47.717Z,9.87
2022-09-30T08:15:15.556Z,10.30
2022-09-30T08:17:43.210Z,10.62
2022-09-30T08:20:14.257Z,10.58
2022-09-30T08:22:43.371Z,10.62
2022-09-30T08:25:12.644Z,10.51
2022-09-30T08:27:40.526Z,10.52
2022-09-30T08:30:09.797Z,10.45
2022-09-30T08:32:37.528Z,10.73
2022-09-30T08:35:06.045Z,10.85
2022-09-30T08:37:33.767Z,10.66
2022-09-30T08:40:02.051Z,10.75
2022-09-30T08:42:52.767Z,10.74
2022-09-30T08:45:35.519Z,10.75
2022-09-30T08:51:00.789Z,10.54
2022-09-30T08:53:32.097Z,10.53
2022-09-30T08:56:02.619Z,10.82
2022-09-30T08:58:33.694Z,11.02
2022-09-30T09:01:11.494Z,11.41
2022-09-30T09:03:40.507Z,11.56
2022-09-30T09:06:25.199Z,11.48
2022-09-30T09:09:15.364Z,11.36
2022-09-30T09:11:54.305Z,11.18
2022-09-30T09:14:35.374Z,11.27
2022-09-30T09:17:15.908Z,11.39
2022-09-30T09:19:52.908Z,11.36
2022-09-30T09:22:24.679Z,11.35
2022-09-30T09:24:54.731Z,11.43
2022-09-30T09:27:27.660Z,11.50
2022-09-30T09:30:06.397Z,11.56
2022-09-30T09:32:36.191Z,11.75
2022-09-30T09:35:14.566Z,11.72
2022-09-30T09:38:10.082Z,11.74
2022-09-30T09:40:57.026Z,11.92
2022-09-30T09:43:33.749Z,12.19
2022-09-30T09:46:12.998Z,12.21
2022-09-30T09:48:40.652Z,12.37
2022-09-30T09:51:18.015Z,12.69
2022-09-30T09:53:49.197Z,12.70
2022-09-30T09:56:19.559Z,12.63
2022-09-30T09:59:13.143Z,12.78
2022-09-30T10:01:45.072Z,12.91
2022-09-30T10:04:16.617Z,12.96
2022-09-30T10:06:53.974Z,12.99
2022-09-30T10:09:27.595Z,13.02
2022-09-30T10:12:26.821Z,13.26
2022-09-30T10:14:59.998Z,13.35
2022-09-30T10:17:31.742Z,13.55
2022-09-30T10:20:02.711Z,13.47
2022-09-30T10:22:32.196Z,13.70
2022-09-30T10:25:20.637Z,13.94
2022-09-30T10:27:51.916Z,13.96
2022-09-30T10:30:46.522Z,14.36
2022-09-30T10:33:25.758Z,14.58
2022-09-30T10:35:57.871Z,14.69
2022-09-30T10:38:29.577Z,14.59
2022-09-30T10:40:57.927Z,14.48
2022-09-30T10:43:29.968Z,14.64
2022-09-30T10:46:24.687Z,14.61
2022-09-30T10:48:54.768Z,14.98
2022-09-30T10:51:27.134Z,15.12
2022-09-30T10:53:56.172Z,15.28
2022-09-30T10:56:42.524Z,15.36
2022-09-30T10:59:26.644Z,15.11
2022-09-30T11:02:00.015Z,15.10
2022-09-30T11:04:36.356Z,15.36
2022-09-30T11:07:15.605Z,15.46
2022-09-30T11:09:51.247Z,15.60
2022-09-30T11:12:26.965Z,15.75
2022-09-30T11:15:02.556Z,15.84
2022-09-30T11:17:39.642Z,16.10
2022-09-30T11:20:17.902Z,16.15
2022-09-30T11:22:52.709Z,16.10
2022-09-30T11:25:27.913Z,16.39
2022-09-30T11:28:23.472Z,16.17
2022-09-30T11:31:03.765Z,16.13
2022-09-30T11:33:51.512Z,16.11
2022-09-30T11:36:28.941Z,16.13
2022-09-30T11:39:14.242Z,16.21
2022-09-30T11:41:46.835Z,16.56
2022-09-30T11:44:27.072Z,16.75
2022-09-30T11:47:07.608Z,16.68
2022-09-30T11:49:49.465Z,16.79
2022-09-30T11:52:29.208Z,16.98
2022-09-30T11:55:15.150Z,17.16
2022-09-30T11:57:50.396Z,17.06
2022-09-30T12:00:19.921Z,17.14
2022-09-30T12:02:49.838Z,17.24
2022-09-30T12:05:22.570Z,16.72
2022-09-30T12:07:56.694Z,17.24
2022-09-30T12:10:28.893Z,17.30
2022-09-30T12:13:02.467Z,17.30
2022-09-30T12:15:32.401Z,17.21
2022-09-30T12:18:02.990Z,17.38
2022-09-30T12:20:34.856Z,17.32
2022-09-30T12:23:18.746Z,17.35
2022-09-30T12:25:50.476Z,17.33
2022-09-30T12:28:43.195Z,17.40
2022-09-30T12:31:31.528Z,17.18
2022-09-30T12:34:12.962Z,17.37
2022-09-30T12:37:05.719Z,17.30
2022-09-30T12:40:03.074Z,17.50
2022-09-30T12:42:43.835Z,17.26
2022-09-30T12:45:56.208Z,17.65
2022-09-30T12:48:28.049Z,17.93
2022-09-30T12:50:58.132Z,17.95
2022-09-30T12:53:29.291Z,17.81
2022-09-30T12:56:05.918Z,17.91
2022-09-30T12:58:38.251Z,18.19
2022-09-30T13:01:12.471Z,18.29
2022-09-30T13:03:50.401Z,18.20
2022-09-30T13:06:21.539Z,17.83
2022-09-30T13:09:07.809Z,17.33
2022-09-30T13:11:42.258Z,17.10
2022-09-30T13:14:23.638Z,17.00
2022-09-30T13:17:01.879Z,17.18
2022-09-30T13:19:36.305Z,17.08
2022-09-30T13:22:51.855Z,16.77
2022-09-30T13:25:20.162Z,16.58
2022-09-30T13:27:51.737Z,16.42
2022-09-30T13:30:42.059Z,16.56
2022-09-30T13:33:32.116Z,16.49
2022-09-30T13:36:10.150Z,16.28
2022-09-30T13:38:41.150Z,16.03
2022-09-30T13:41:18.768Z,16.37
2022-09-30T13:44:03.110Z,16.63
2022-09-30T13:46:36.157Z,16.71
2022-09-30T13:49:11.794Z,17.00
2022-09-30T13:51:41.577Z,17.42
2022-09-30T13:54:14.909Z,17.27
2022-09-30T13:56:44.120Z,17.40
2022-09-30T13:59:31.410Z,17.00
2022-09-30T14:02:21.513Z,17.17
2022-09-30T14:05:02.363Z,17.66
2022-09-30T14:07:42.690Z,17.57
2022-09-30T14:10:32.107Z,17.53
2022-09-30T14:13:21.223Z,17.11
2022-09-30T14:16:19.236Z,16.99
2022-09-30T14:19:14.376Z,16.86
2022-09-30T14:21:45.505Z,16.71
2022-09-30T14:24:16.154Z,16.42
2022-09-30T14:27:00.531Z,16.24
2022-09-30T14:29:39.721Z,16.20
2022-09-30T14:32:14.569Z,16.21
2022-09-30T14:34:43.033Z,16.45
2022-09-30T14:37:18.563Z,17.09
2022-09-30T14:39:48.226Z,17.60
2022-09-30T14:42:25.122Z,17.95
2022-09-30T14:44:54.798Z,18.08
2022-09-30T14:47:25.980Z,18.05
2022-09-30T14:49:53.766Z,17.73
2022-09-30T14:52:36.827Z,17.56
2022-09-30T14:55:05.546Z,17.35
2022-09-30T14:57:34.942Z,17.32
2022-09-30T15:00:25.427Z,16.96
2022-09-30T15:02:54.684Z,16.74
2022-09-30T15:05:22.530Z,16.61
2022-09-30T15:07:50.279Z,16.70
2022-09-30T15:10:21.509Z,16.73
2022-09-30T15:12:51.250Z,16.84
2022-09-30T15:15:40.622Z,16.83
2022-09-30T15:18:31.329Z,16.78
2022-09-30T15:21:02.547Z,16.70
2022-09-30T15:23:33.320Z,16.61
2022-09-30T15:26:02.004Z,16.77
2022-09-30T15:28:29.804Z,16.49
2022-09-30T15:30:59.669Z,16.55
2022-09-30T15:33:31.772Z,16.46
2022-09-30T15:36:05.523Z,16.42
2022-09-30T15:38:35.328Z,16.29
2022-09-30T15:41:06.665Z,16.12
2022-09-30T15:43:37.507Z,16.13
2022-09-30T15:46:25.087Z,16.05
2022-09-30T15:48:55.393Z,15.98
2022-09-30T15:51:32.251Z,15.88
2022-09-30T15:54:01.380Z,15.83
2022-09-30T15:56:36.993Z,15.68
2022-09-30T15:59:06.355Z,15.43
2022-09-30T16:01:36.974Z,15.30
2022-09-30T16:04:10.838Z,15.23
2022-09-30T16:06:46.373Z,15.06
2022-09-30T16:09:24.585Z,14.83
2022-09-30T16:12:02.906Z,14.71
2022-09-30T16:14:32.920Z,14.60
2022-09-30T16:17:03.279Z,14.38
2022-09-30T16:19:32.875Z,14.25
2022-09-30T16:22:01.350Z,14.13
2022-09-30T16:24:46.256Z,13.69
2022-09-30T16:27:32.635Z,13.82
2022-09-30T16:30:01.544Z,13.69
2022-09-30T16:32:33.134Z,13.52
2022-09-30T16:35:02.371Z,13.43
2022-09-30T16:37:30.672Z,13.26
2022-09-30T16:40:10.329Z,13.07
2022-09-30T16:42:37.893Z,12.87
2022-09-30T16:45:06.615Z,12.79
2022-09-30T16:47:34.226Z,12.68
2022-09-30T16:50:03.168Z,12.48
2022-09-30T16:52:31.278Z,12.41
2022-09-30T16:54:58.877Z,12.26
2022-09-30T16:57:26.441Z,12.07
2022-09-30T16:59:54.024Z,11.95
2022-09-30T17:02:21.832Z,11.79
2022-09-30T17:04:49.479Z,11.69
2022-09-30T17:07:18.558Z,11.52
2022-09-30T17:09:46.522Z,11.39
2022-09-30T17:12:14.389Z,11.21
2022-09-30T17:14:43.978Z,11.10
2022-09-30T17:17:13.707Z,11.01
2022-09-30T17:19:42.478Z,10.90
2022-09-30T17:22:10.369Z,10.71
2022-09-30T17:24:39.320Z,10.72
2022-09-30T17:27:07.724Z,10.60
2022-09-30T17:29:41.746Z,10.50
2022-09-30T17:32:10.586Z,10.44
2022-09-30T17:34:38.233Z,10.35
2022-09-30T17:39:34.886Z,10.11
2022-09-30T17:42:21.318Z,10.07
2022-09-30T17:44:48.946Z,10.04
2022-09-30T17:47:16.671Z,9.90
2022-09-30T17:49:44.324Z,9.89
2022-09-30T17:52:14.482Z,9.83
2022-09-30T17:54:42.174Z,9.76
2022-09-30T17:57:11.378Z,9.71
2022-09-30T17:59:39.054Z,9.65
2022-09-30T18:02:06.953Z,9.65
2022-09-30T18:04:36.475Z,9.53
2022-09-30T18:07:04.187Z,9.52
2022-09-30T18:09:32.988Z,9.54
2022-09-30T18:12:01.121Z,9.45
2022-09-30T18:14:35.001Z,9.37
2022-09-30T18:17:03.998Z,9.32
2022-09-30T18:19:31.605Z,9.36
2022-09-30T18:21:59.535Z,9.31
2022-09-30T18:24:44.708Z,9.25
2022-09-30T18:27:12.611Z,9.27
2022-09-30T18:29:41.583Z,9.26
2022-09-30T18:32:09.471Z,9.24
2022-09-30T18:34:37.233Z,9.21
2022-09-30T18:37:06.605Z,9.15
2022-09-30T18:39:35.580Z,9.09
2022-09-30T18:42:04.831Z,9.09
2022-09-30T18:44:33.478Z,9.04
2022-09-30T18:47:03.010Z,8.95
2022-09-30T18:49:30.896Z,8.82
2022-09-30T18:51:58.694Z,8.86
2022-09-30T18:54:26.494Z,8.85
2022-09-30T18:56:54.185Z,8.89
2022-09-30T18:59:23.964Z,8.85
2022-09-30T19:01:52.080Z,8.80
2022-09-30T19:04:21.298Z,8.82
2022-09-30T19:06:49.876Z,8.81
2022-09-30T19:09:17.622Z,8.68
2022-09-30T19:11:46.189Z,8.69
2022-09-30T19:14:14.637Z,8.73
2022-09-30T19:16:43.207Z,8.75
2022-09-30T19:19:11.469Z,8.76
2022-09-30T19:21:41.127Z,8.73
2022-09-30T19:24:09.980Z,8.67
2022-09-30T19:26:39.472Z,8.66
2022-09-30T19:29:09.425Z,8.46
2022-09-30T19:31:37.923Z,8.68
2022-09-30T19:34:06.216Z,8.72
2022-09-30T19:36:46.535Z,8.78
2022-09-30T19:39:18.502Z,8.81
2022-09-30T19:41:47.159Z,8.86
2022-09-30T19:44:19.161Z,8.85
2022-09-30T19:46:49.436Z,8.83
2022-09-30T19:49:17.213Z,8.56
2022-09-30T19:51:45.373Z,8.53
2022-09-30T19:54:13.034Z,8.81
2022-09-30T19:56:42.002Z,8.72
2022-09-30T19:59:09.826Z,8.81
2022-09-30T20:01:38.255Z,8.85
2022-09-30T20:04:24.702Z,8.79
2022-09-30T20:07:15.898Z,8.84
2022-09-30T20:10:04.122Z,8.86
2022-09-30T20:12:53.783Z,8.89
2022-09-30T20:15:52.801Z,8.81
2022-09-30T20:18:41.557Z,8.90
2022-09-30T20:21:29.673Z,8.97
2022-09-30T20:24:19.294Z,8.89
2022-09-30T20:27:07.181Z,8.84
2022-09-30T20:29:56.501Z,8.88
2022-09-30T20:32:44.428Z,8.84
2022-09-30T20:35:35.881Z,8.93
2022-09-30T20:38:24.656Z,8.94
2022-09-30T20:41:12.564Z,8.89
2022-09-30T20:44:00.733Z,8.91
2022-09-30T20:46:50.064Z,8.95
2022-09-30T20:49:37.968Z,8.94
2022-09-30T20:52:26.349Z,8.92
2022-09-30T20:55:14.388Z,9.07
2022-09-30T20:58:02.435Z,9.01
2022-09-30T21:00:51.230Z,9.10
2022-09-30T21:03:41.867Z,9.07
2022-09-30T21:06:31.090Z,9.12
2022-09-30T21:09:19.010Z,9.13
2022-09-30T21:12:09.627Z,9.06
2022-09-30T21:15:01.776Z,9.08
2022-09-30T21:17:49.745Z,9.08
2022-09-30T21:20:39.088Z,9.10
2022-09-30T21:23:27.368Z,9.15
2022-09-30T21:26:16.985Z,9.08
2022-09-30T21:29:05.296Z,9.12
2022-09-30T21:31:53.244Z,9.22
2022-09-30T21:34:41.510Z,9.25
2022-09-30T21:37:30.861Z,9.29
2022-09-30T21:40:18.992Z,9.12
2022-09-30T21:43:06.924Z,9.26
2022-09-30T21:45:59.532Z,9.72
2022-09-30T21:48:47.529Z,9.84
2022-09-30T21:51:35.850Z,10.09
2022-09-30T21:54:25.390Z,10.14
2022-09-30T21:57:13.304Z,9.99
2022-09-30T22:00:02.260Z,10.27
2022-09-30T22:02:50.142Z,10.46
2022-09-30T22:05:38.176Z,10.52
2022-09-30T22:08:26.773Z,10.11
2022-09-30T22:11:18.513Z,10.10
2022-09-30T22:14:06.782Z,10.29
2022-09-30T22:16:55.806Z,10.24
2022-09-30T22:19:43.839Z,10.25
2022-09-30T22:22:31.768Z,10.30
2022-09-30T22:25:20.439Z,10.35
2022-09-30T22:28:10.272Z,10.25
2022-09-30T22:30:58.309Z,10.32
2022-09-30T22:34:04.136Z,10.09
2022-09-30T22:37:10.170Z,10.17
2022-09-30T22:40:00.846Z,10.52
2022-09-30T22:42:49.145Z,10.44
2022-09-30T22:45:38.450Z,10.29
2022-09-30T22:48:27.418Z,9.97
2022-09-30T22:51:16.157Z,10.11
2022-09-30T22:54:04.318Z,10.06
2022-09-30T22:56:52.290Z,9.87
2022-09-30T22:59:41.643Z,9.92
2022-09-30T23:02:30.962Z,9.89
2022-09-30T23:05:20.947Z,10.02
2022-09-30T23:08:08.853Z,10.12
2022-09-30T23:10:57.379Z,10.26
2022-09-30T23:13:46.468Z,10.48
2022-09-30T23:16:34.507Z,10.59
2022-09-30T23:19:23.794Z,10.62
2022-09-30T23:22:11.872Z,10.66
2022-09-30T23:25:00.204Z,10.52
2022-09-30T23:27:49.559Z,10.59
2022-09-30T23:30:38.165Z,10.73
2022-09-30T23:33:26.525Z,10.79
2022-09-30T23:36:17.579Z,10.77
2022-09-30T23:39:09.207Z,10.65
2022-09-30T23:41:57.234Z,10.62
2022-09-30T23:44:45.144Z,10.73
2022-09-30T23:47:33.568Z,10.64
2022-09-30T23:50:21.463Z,10.57
2022-09-30T23:53:10.815Z,10.59
2022-09-30T23:56:00.508Z,10.53
2022-09-30T23:58:50.347Z,10.52
